createdAt,value
2018-06-16T00:04:55.855Z,14.27
2018-06-16T00:09:58.888Z,14.50
2018-06-16T00:15:01.891Z,12.57
2018-06-16T00:20:05.076Z,12.43
2018-06-16T00:25:08.056Z,12.23
2018-06-16T00:30:11.164Z,13.80
2018-06-16T00:35:14.547Z,13.10
2018-06-16T00:40:17.703Z,13.00
2018-06-16T00:45:20.916Z,12.87
2018-06-16T00:50:24.120Z,11.90
2018-06-16T00:55:27.284Z,11.77
2018-06-16T01:00:30.439Z,12.10
2018-06-16T01:05:33.443Z,12.17
2018-06-16T01:10:36.440Z,11.67
2018-06-16T01:15:39.645Z,14.20
2018-06-16T01:20:42.659Z,14.07
2018-06-16T01:25:45.851Z,13.03
2018-06-16T01:30:48.804Z,13.80
2018-06-16T01:35:51.851Z,12.13
2018-06-16T01:40:55.218Z,12.13
2018-06-16T01:45:58.188Z,11.57
2018-06-16T01:51:01.515Z,12.30
2018-06-16T01:56:04.688Z,12.10
2018-06-16T02:01:07.656Z,12.60
2018-06-16T02:06:10.627Z,12.57
2018-06-16T02:11:13.816Z,11.60
2018-06-16T02:16:17.032Z,12.70
2018-06-16T02:21:20.067Z,12.93
2018-06-16T02:26:23.032Z,12.43
2018-06-16T02:31:26.248Z,13.47
2018-06-16T02:36:29.215Z,14.30
2018-06-16T02:41:32.414Z,14.80
2018-06-16T02:46:35.509Z,12.00
2018-06-16T02:51:38.650Z,11.57
2018-06-16T02:56:41.611Z,12.80
2018-06-16T03:01:44.600Z,12.80
2018-06-16T03:06:47.550Z,12.80
2018-06-16T03:11:50.532Z,15.73
2018-06-16T03:16:53.784Z,14.00
2018-06-16T03:21:56.908Z,14.37
2018-06-16T03:27:00.163Z,15.97
2018-06-16T03:32:03.144Z,17.17
2018-06-16T03:37:06.118Z,15.97
2018-06-16T03:42:09.399Z,17.20
2018-06-16T03:47:12.503Z,16.07
2018-06-16T03:52:15.422Z,15.37
2018-06-16T03:57:18.619Z,17.07
2018-06-16T04:02:21.834Z,15.93
2018-06-16T04:07:24.908Z,17.00
2018-06-16T04:12:28.048Z,16.77
2018-06-16T04:17:31.023Z,15.70
2018-06-16T04:22:33.990Z,17.10
2018-06-16T04:27:36.962Z,15.00
2018-06-16T04:32:40.152Z,15.10
2018-06-16T04:37:43.155Z,16.07
2018-06-16T04:42:46.271Z,15.60
2018-06-16T04:47:49.224Z,16.27
2018-06-16T04:52:52.377Z,16.83
2018-06-16T04:57:55.340Z,15.10
2018-06-16T05:02:58.487Z,14.80
2018-06-16T05:08:01.499Z,16.93
2018-06-16T05:13:04.903Z,17.23
2018-06-16T05:18:08.012Z,17.23
2018-06-16T05:23:11.037Z,16.43
2018-06-16T05:28:14.021Z,17.10
2018-06-16T05:33:17.319Z,16.37
2018-06-16T05:38:20.426Z,16.67
2018-06-16T05:43:23.535Z,16.20
2018-06-16T05:48:26.548Z,17.67
2018-06-16T05:53:29.540Z,17.07
2018-06-16T05:58:32.668Z,18.03
2018-06-16T06:03:35.961Z,17.47
2018-06-16T06:08:39.271Z,19.50
2018-06-16T06:13:42.441Z,18.20
2018-06-16T06:18:45.588Z,19.20
2018-06-16T06:23:48.807Z,18.27
2018-06-16T06:28:52.115Z,19.60
2018-06-16T06:33:55.343Z,16.80
2018-06-16T06:38:58.709Z,16.90
2018-06-16T06:44:01.837Z,17.40
2018-06-16T06:49:05.088Z,17.37
2018-06-16T06:54:08.248Z,17.13
2018-06-16T06:59:11.467Z,17.73
2018-06-16T07:04:14.871Z,18.43
2018-06-16T07:09:18.065Z,17.47
2018-06-16T07:14:21.048Z,16.97
2018-06-16T07:19:24.319Z,18.50
2018-06-16T07:24:27.505Z,17.03
2018-06-16T07:29:30.615Z,16.70
2018-06-16T07:34:33.923Z,16.87
2018-06-16T07:39:36.934Z,16.67
2018-06-16T07:44:39.978Z,15.63
2018-06-16T07:49:43.004Z,17.00
2018-06-16T07:54:46.278Z,15.50
2018-06-16T07:59:49.263Z,16.00
2018-06-16T08:04:52.451Z,16.77
2018-06-16T08:09:56.151Z,15.57
2018-06-16T08:14:59.384Z,15.30
2018-06-16T08:20:02.470Z,16.40
2018-06-16T08:25:05.561Z,14.03
2018-06-16T08:30:08.650Z,15.00
2018-06-16T08:35:11.694Z,14.70
2018-06-16T08:40:14.919Z,12.97
2018-06-16T08:45:17.978Z,12.23
2018-06-16T08:50:21.184Z,12.40
2018-06-16T08:55:24.451Z,12.47
2018-06-16T09:00:27.549Z,24.40
2018-06-16T09:05:30.778Z,14.83
2018-06-16T09:10:33.968Z,16.10
2018-06-16T09:15:37.280Z,10.87
2018-06-16T09:20:40.316Z,11.53
2018-06-16T09:25:43.518Z,18.00
2018-06-16T09:36:02.684Z,12.53
2018-06-16T09:41:05.907Z,14.60
2018-06-16T09:46:08.962Z,14.80
2018-06-16T09:51:11.997Z,15.00
2018-06-16T09:56:15.142Z,15.53
2018-06-16T10:01:18.133Z,14.13
2018-06-16T10:06:21.213Z,13.67
2018-06-16T10:11:24.298Z,15.47
2018-06-16T10:16:27.462Z,13.30
2018-06-16T10:21:30.736Z,13.93
2018-06-16T10:26:33.848Z,13.50
2018-06-16T10:31:36.907Z,12.40
2018-06-16T10:36:39.937Z,13.23
2018-06-16T10:41:43.386Z,12.63
2018-06-16T10:46:46.584Z,13.40
2018-06-16T10:51:50.859Z,14.40
2018-06-16T10:56:54.135Z,12.20
2018-06-16T11:01:57.198Z,12.50
2018-06-16T11:07:00.325Z,12.90
2018-06-16T11:12:03.519Z,13.23
2018-06-16T11:17:06.755Z,11.97
2018-06-16T11:22:09.761Z,11.80
2018-06-16T11:27:12.808Z,12.30
2018-06-16T11:32:15.886Z,10.40
2018-06-16T11:37:19.195Z,11.63
2018-06-16T11:42:22.254Z,9.87
2018-06-16T11:47:25.275Z,9.97
2018-06-16T11:52:28.285Z,10.57
2018-06-16T11:57:31.659Z,10.17
2018-06-16T12:02:34.926Z,10.83
2018-06-16T12:07:38.091Z,9.30
2018-06-16T12:12:42.132Z,7.83
2018-06-16T12:17:45.372Z,9.57
2018-06-16T12:22:48.497Z,13.50
2018-06-16T12:27:51.699Z,8.77
2018-06-16T12:32:54.991Z,9.40
2018-06-16T12:37:58.120Z,9.50
2018-06-16T12:43:01.195Z,8.77
2018-06-16T12:48:04.383Z,9.70
2018-06-16T12:53:07.404Z,8.63
2018-06-16T12:58:10.561Z,9.40
2018-06-16T13:03:14.371Z,8.43
2018-06-16T13:08:17.453Z,8.37
2018-06-16T13:13:20.537Z,10.03
2018-06-16T13:18:23.569Z,10.07
2018-06-16T13:23:26.608Z,8.97
2018-06-16T13:28:29.596Z,8.33
2018-06-16T13:33:32.656Z,8.47
2018-06-16T13:38:35.749Z,9.10
2018-06-16T13:43:38.765Z,9.50
2018-06-16T13:48:41.788Z,10.30
2018-06-16T13:53:44.855Z,9.33
2018-06-16T13:58:47.909Z,9.80
2018-06-16T14:03:50.984Z,9.20
2018-06-16T14:08:54.064Z,7.90
2018-06-16T14:13:57.044Z,8.67
2018-06-16T14:19:00.240Z,9.60
2018-06-16T14:24:03.332Z,10.20
2018-06-16T14:29:06.352Z,7.97
2018-06-16T14:34:09.446Z,8.40
2018-06-16T14:39:12.680Z,7.37
2018-06-16T14:44:15.992Z,6.67
2018-06-16T14:49:19.193Z,8.53
2018-06-16T14:54:22.264Z,8.13
2018-06-16T14:59:25.279Z,7.63
2018-06-16T15:04:28.482Z,7.77
2018-06-16T15:09:31.718Z,7.40
2018-06-16T15:14:34.783Z,8.10
2018-06-16T15:19:37.856Z,7.47
2018-06-16T15:24:40.823Z,7.33
2018-06-16T15:29:43.820Z,7.20
2018-06-16T15:34:46.805Z,7.97
2018-06-16T15:39:49.929Z,7.23
2018-06-16T15:44:53.152Z,7.60
2018-06-16T15:49:56.194Z,6.70
2018-06-16T15:54:59.674Z,7.40
2018-06-16T16:00:02.756Z,8.00
2018-06-16T16:05:06.221Z,6.60
2018-06-16T16:10:09.408Z,6.70
2018-06-16T16:15:12.613Z,8.00
2018-06-16T16:20:15.671Z,7.67
2018-06-16T16:25:19.019Z,7.07
2018-06-16T16:30:22.236Z,6.87
2018-06-16T16:35:25.360Z,6.60
2018-06-16T16:40:28.407Z,8.27
2018-06-16T16:45:31.457Z,7.80
2018-06-16T16:50:34.509Z,6.10
2018-06-16T16:55:37.808Z,8.53
2018-06-16T17:00:40.958Z,8.27
2018-06-16T17:05:44.056Z,8.30
2018-06-16T17:10:47.223Z,7.37
2018-06-16T17:15:50.228Z,7.00
2018-06-16T17:20:53.445Z,7.10
2018-06-16T17:25:56.493Z,7.70
2018-06-16T17:31:00.021Z,7.00
2018-06-16T17:36:03.100Z,6.50
2018-06-16T17:41:06.159Z,6.50
2018-06-16T17:46:09.287Z,6.33
2018-06-16T17:51:12.756Z,6.00
2018-06-16T17:56:15.825Z,6.77
2018-06-16T18:01:18.925Z,6.60
2018-06-16T18:06:22.003Z,6.07
2018-06-16T18:11:25.080Z,6.00
2018-06-16T18:16:28.085Z,5.47
2018-06-16T18:21:31.586Z,6.20
2018-06-16T18:26:34.843Z,5.70
2018-06-16T18:31:38.088Z,6.40
2018-06-16T18:36:41.179Z,7.47
2018-06-16T18:41:44.441Z,6.93
2018-06-16T18:46:47.416Z,5.53
2018-06-16T18:51:50.473Z,5.90
2018-06-16T18:56:53.648Z,7.30
2018-06-16T19:01:56.853Z,6.90
2018-06-16T19:07:00.169Z,6.80
2018-06-16T19:12:03.498Z,6.90
2018-06-16T19:17:06.798Z,6.27
2018-06-16T19:22:09.833Z,7.43
2018-06-16T19:27:12.981Z,8.03
2018-06-16T19:32:16.195Z,6.40
2018-06-16T19:37:19.713Z,6.90
2018-06-16T19:42:22.750Z,6.03
2018-06-16T19:47:25.755Z,8.10
2018-06-16T19:52:29.000Z,7.27
2018-06-16T19:57:32.351Z,6.63
2018-06-16T20:02:35.396Z,6.70
2018-06-16T20:07:38.472Z,7.20
2018-06-16T20:12:41.758Z,6.80
2018-06-16T20:17:45.070Z,6.30
2018-06-16T20:22:48.065Z,6.33
2018-06-16T20:27:51.151Z,7.80
2018-06-16T20:32:54.195Z,8.43
2018-06-16T20:37:57.520Z,7.30
2018-06-16T20:43:00.589Z,8.00
2018-06-16T20:48:03.672Z,9.67
2018-06-16T20:53:06.745Z,8.30
2018-06-16T20:58:10.045Z,8.00
2018-06-16T21:03:13.289Z,8.00
2018-06-16T21:08:16.624Z,8.70
2018-06-16T21:13:19.648Z,7.20
2018-06-16T21:18:22.661Z,7.10
2018-06-16T21:23:25.692Z,6.90
2018-06-16T21:28:28.964Z,7.63
2018-06-16T21:33:32.001Z,6.37
2018-06-16T21:38:35.043Z,6.03
2018-06-16T21:43:38.278Z,6.43
2018-06-16T21:48:41.480Z,5.90
2018-06-16T21:53:44.469Z,5.47
2018-06-16T21:58:47.517Z,5.47
2018-06-16T22:03:50.699Z,6.07
2018-06-16T22:08:54.246Z,6.20
2018-06-16T22:13:57.539Z,5.23
2018-06-16T22:19:00.701Z,5.67
2018-06-16T22:24:04.955Z,4.93
2018-06-16T22:29:08.009Z,5.30
2018-06-16T22:34:11.085Z,5.40
2018-06-16T22:39:14.213Z,5.73
2018-06-16T22:44:17.211Z,6.07
2018-06-16T22:49:20.199Z,4.60
2018-06-16T22:54:23.252Z,5.90
2018-06-16T22:59:26.460Z,7.80
2018-06-16T23:04:29.725Z,7.23
2018-06-16T23:26:16.057Z,7.80
2018-06-16T23:31:19.359Z,7.47
2018-06-16T23:36:22.360Z,7.47
2018-06-16T23:41:25.604Z,7.77
2018-06-16T23:46:28.747Z,7.47
2018-06-16T23:51:31.719Z,7.50
2018-06-16T23:56:34.895Z,7.63
